sensor_id;sensor_type;location;lat;lon;timestamp;P1;durP1;ratioP1;P2;durP2;ratioP2
40629;SDS011;26329;40.388;-3.710;2023-07-31T00:09:26;0.50;;;0.30;;
40629;SDS011;26329;40.388;-3.710;2023-07-31T00:19:27;5.22;;;0.45;;
40629;SDS011;26329;40.388;-3.710;2023-07-31T00:29:27;2.15;;;0.35;;
40629;SDS011;26329;40.388;-3.710;2023-07-31T00:39:29;2.80;;;0.20;;
40629;SDS011;26329;40.388;-3.710;2023-07-31T00:49:31;1.70;;;0.73;;
40629;SDS011;26329;40.388;-3.710;2023-07-31T00:59:32;5.20;;;1.02;;
40629;SDS011;26329;40.388;-3.710;2023-07-31T01:19:52;1.30;;;0.20;;
40629;SDS011;26329;40.388;-3.710;2023-07-31T01:29:56;0.50;;;0.20;;
40629;SDS011;26329;40.388;-3.710;2023-07-31T01:39:59;0.30;;;0.10;;
40629;SDS011;26329;40.388;-3.710;2023-07-31T01:50:00;0.30;;;0.10;;
40629;SDS011;26329;40.388;-3.710;2023-07-31T02:00:01;0.60;;;0.10;;
40629;SDS011;26329;40.388;-3.710;2023-07-31T02:10:01;3.75;;;0.28;;
40629;SDS011;26329;40.388;-3.710;2023-07-31T02:20:02;0.93;;;0.20;;
40629;SDS011;26329;40.388;-3.710;2023-07-31T02:30:04;3.42;;;0.17;;
40629;SDS011;26329;40.388;-3.710;2023-07-31T02:40:05;3.50;;;0.20;;
40629;SDS011;26329;40.388;-3.710;2023-07-31T02:50:06;2.22;;;0.20;;
40629;SDS011;26329;40.388;-3.710;2023-07-31T03:00:07;2.90;;;0.30;;
40629;SDS011;26329;40.388;-3.710;2023-07-31T03:10:09;3.80;;;0.20;;
40629;SDS011;26329;40.388;-3.710;2023-07-31T03:20:10;2.05;;;0.50;;
40629;SDS011;26329;40.388;-3.710;2023-07-31T03:30:11;0.85;;;0.20;;
40629;SDS011;26329;40.388;-3.710;2023-07-31T03:40:12;0.50;;;0.20;;
40629;SDS011;26329;40.388;-3.710;2023-07-31T03:50:12;1.05;;;0.15;;
40629;SDS011;26329;40.388;-3.710;2023-07-31T04:00:13;0.70;;;0.10;;
40629;SDS011;26329;40.388;-3.710;2023-07-31T04:10:14;1.23;;;0.10;;
40629;SDS011;26329;40.388;-3.710;2023-07-31T04:20:15;3.08;;;0.10;;
40629;SDS011;26329;40.388;-3.710;2023-07-31T04:30:16;0.60;;;0.20;;
40629;SDS011;26329;40.388;-3.710;2023-07-31T04:40:17;2.90;;;0.13;;
40629;SDS011;26329;40.388;-3.710;2023-07-31T04:50:17;1.70;;;0.20;;
40629;SDS011;26329;40.388;-3.710;2023-07-31T05:00:18;2.05;;;0.20;;
40629;SDS011;26329;40.388;-3.710;2023-07-31T05:20:20;3.05;;;0.30;;
40629;SDS011;26329;40.388;-3.710;2023-07-31T05:30:21;3.60;;;0.20;;
40629;SDS011;26329;40.388;-3.710;2023-07-31T05:50:22;0.77;;;0.20;;
40629;SDS011;26329;40.388;-3.710;2023-07-31T06:10:23;0.95;;;0.30;;
40629;SDS011;26329;40.388;-3.710;2023-07-31T06:30:25;2.05;;;0.30;;
40629;SDS011;26329;40.388;-3.710;2023-07-31T06:50:26;5.80;;;0.30;;
40629;SDS011;26329;40.388;-3.710;2023-07-31T07:00:30;4.20;;;0.38;;
40629;SDS011;26329;40.388;-3.710;2023-07-31T07:10:32;3.58;;;0.30;;
40629;SDS011;26329;40.388;-3.710;2023-07-31T07:20:33;3.80;;;0.20;;
40629;SDS011;26329;40.388;-3.710;2023-07-31T07:30:34;5.18;;;1.45;;
40629;SDS011;26329;40.388;-3.710;2023-07-31T07:40:38;3.17;;;0.30;;
40629;SDS011;26329;40.388;-3.710;2023-07-31T07:50:42;6.05;;;0.28;;
40629;SDS011;26329;40.388;-3.710;2023-07-31T08:00:48;2.38;;;0.30;;
40629;SDS011;26329;40.388;-3.710;2023-07-31T08:10:50;2.88;;;0.32;;
40629;SDS011;26329;40.388;-3.710;2023-07-31T08:20:51;2.05;;;0.10;;
40629;SDS011;26329;40.388;-3.710;2023-07-31T08:30:51;4.57;;;0.60;;
40629;SDS011;26329;40.388;-3.710;2023-07-31T08:40:52;3.20;;;0.52;;
40629;SDS011;26329;40.388;-3.710;2023-07-31T08:50:54;4.78;;;0.75;;
40629;SDS011;26329;40.388;-3.710;2023-07-31T09:00:54;4.65;;;0.60;;
40629;SDS011;26329;40.388;-3.710;2023-07-31T09:10:58;3.67;;;0.50;;
40629;SDS011;26329;40.388;-3.710;2023-07-31T09:21:02;3.35;;;0.45;;
40629;SDS011;26329;40.388;-3.710;2023-07-31T09:31:03;6.65;;;0.38;;
40629;SDS011;26329;40.388;-3.710;2023-07-31T09:41:04;5.88;;;0.75;;
40629;SDS011;26329;40.388;-3.710;2023-07-31T09:51:05;2.72;;;0.43;;
40629;SDS011;26329;40.388;-3.710;2023-07-31T10:01:06;5.15;;;0.32;;
40629;SDS011;26329;40.388;-3.710;2023-07-31T10:11:07;3.63;;;0.30;;
40629;SDS011;26329;40.388;-3.710;2023-07-31T10:21:11;3.40;;;0.50;;
40629;SDS011;26329;40.388;-3.710;2023-07-31T10:31:12;2.17;;;0.40;;
40629;SDS011;26329;40.388;-3.710;2023-07-31T10:41:13;3.45;;;0.55;;
40629;SDS011;26329;40.388;-3.710;2023-07-31T10:51:14;18.33;;;1.25;;
40629;SDS011;26329;40.388;-3.710;2023-07-31T11:01:17;3.67;;;1.65;;
40629;SDS011;26329;40.388;-3.710;2023-07-31T11:11:19;6.45;;;0.70;;
40629;SDS011;26329;40.388;-3.710;2023-07-31T11:21:21;8.48;;;1.08;;
40629;SDS011;26329;40.388;-3.710;2023-07-31T11:31:23;10.13;;;1.00;;
40629;SDS011;26329;40.388;-3.710;2023-07-31T11:41:23;6.40;;;0.75;;
40629;SDS011;26329;40.388;-3.710;2023-07-31T11:51:24;3.25;;;0.68;;
40629;SDS011;26329;40.388;-3.710;2023-07-31T12:01:26;3.70;;;0.50;;
40629;SDS011;26329;40.388;-3.710;2023-07-31T12:11:27;5.68;;;0.65;;
40629;SDS011;26329;40.388;-3.710;2023-07-31T12:21:28;3.42;;;0.40;;
40629;SDS011;26329;40.388;-3.710;2023-07-31T12:31:29;4.47;;;0.55;;
40629;SDS011;26329;40.388;-3.710;2023-07-31T12:41:33;3.08;;;0.57;;
40629;SDS011;26329;40.388;-3.710;2023-07-31T12:51:34;5.07;;;0.95;;
40629;SDS011;26329;40.388;-3.710;2023-07-31T13:01:34;4.05;;;0.40;;
40629;SDS011;26329;40.388;-3.710;2023-07-31T13:11:35;5.20;;;0.63;;
40629;SDS011;26329;40.388;-3.710;2023-07-31T13:21:36;8.98;;;0.70;;
40629;SDS011;26329;40.388;-3.710;2023-07-31T13:31:37;5.85;;;2.17;;
40629;SDS011;26329;40.388;-3.710;2023-07-31T13:41:37;7.47;;;2.20;;
40629;SDS011;26329;40.388;-3.710;2023-07-31T13:51:38;4.18;;;0.68;;
40629;SDS011;26329;40.388;-3.710;2023-07-31T14:01:39;2.58;;;0.30;;
40629;SDS011;26329;40.388;-3.710;2023-07-31T14:11:40;4.03;;;0.20;;
40629;SDS011;26329;40.388;-3.710;2023-07-31T14:21:41;1.27;;;0.22;;
40629;SDS011;26329;40.388;-3.710;2023-07-31T14:31:41;2.40;;;0.13;;
40629;SDS011;26329;40.388;-3.710;2023-07-31T14:41:42;1.85;;;0.20;;
40629;SDS011;26329;40.388;-3.710;2023-07-31T14:51:43;3.58;;;0.32;;
40629;SDS011;26329;40.388;-3.710;2023-07-31T15:01:44;3.78;;;0.17;;
40629;SDS011;26329;40.388;-3.710;2023-07-31T15:11:44;3.17;;;0.22;;
40629;SDS011;26329;40.388;-3.710;2023-07-31T15:21:45;1.08;;;0.15;;
40629;SDS011;26329;40.388;-3.710;2023-07-31T15:31:46;4.07;;;0.40;;
40629;SDS011;26329;40.388;-3.710;2023-07-31T15:41:48;4.32;;;0.32;;
40629;SDS011;26329;40.388;-3.710;2023-07-31T15:51:49;2.53;;;1.10;;
40629;SDS011;26329;40.388;-3.710;2023-07-31T16:01:49;0.82;;;0.30;;
40629;SDS011;26329;40.388;-3.710;2023-07-31T16:11:50;0.77;;;0.20;;
40629;SDS011;26329;40.388;-3.710;2023-07-31T16:21:51;0.80;;;0.25;;
40629;SDS011;26329;40.388;-3.710;2023-07-31T16:31:51;4.32;;;0.20;;
40629;SDS011;26329;40.388;-3.710;2023-07-31T16:41:52;1.10;;;0.35;;
40629;SDS011;26329;40.388;-3.710;2023-07-31T16:51:53;3.60;;;0.38;;
40629;SDS011;26329;40.388;-3.710;2023-07-31T17:01:54;2.85;;;0.40;;
40629;SDS011;26329;40.388;-3.710;2023-07-31T17:11:56;2.20;;;0.45;;
40629;SDS011;26329;40.388;-3.710;2023-07-31T17:21:56;1.45;;;0.32;;
40629;SDS011;26329;40.388;-3.710;2023-07-31T17:31:57;3.33;;;0.50;;
40629;SDS011;26329;40.388;-3.710;2023-07-31T17:41:58;1.35;;;0.40;;
40629;SDS011;26329;40.388;-3.710;2023-07-31T17:51:59;1.40;;;0.70;;
40629;SDS011;26329;40.388;-3.710;2023-07-31T18:02:01;3.65;;;1.40;;
40629;SDS011;26329;40.388;-3.710;2023-07-31T18:12:02;3.15;;;1.10;;
40629;SDS011;26329;40.388;-3.710;2023-07-31T18:22:02;4.40;;;1.23;;
40629;SDS011;26329;40.388;-3.710;2023-07-31T18:32:03;6.18;;;1.25;;
40629;SDS011;26329;40.388;-3.710;2023-07-31T18:42:06;5.10;;;1.13;;
40629;SDS011;26329;40.388;-3.710;2023-07-31T18:52:08;1.40;;;1.30;;
40629;SDS011;26329;40.388;-3.710;2023-07-31T19:02:09;5.40;;;1.48;;
40629;SDS011;26329;40.388;-3.710;2023-07-31T19:12:12;4.75;;;1.40;;
40629;SDS011;26329;40.388;-3.710;2023-07-31T19:22:14;3.15;;;1.50;;
40629;SDS011;26329;40.388;-3.710;2023-07-31T19:32:15;4.65;;;0.80;;
40629;SDS011;26329;40.388;-3.710;2023-07-31T19:42:16;2.03;;;1.15;;
40629;SDS011;26329;40.388;-3.710;2023-07-31T19:52:18;3.35;;;0.82;;
40629;SDS011;26329;40.388;-3.710;2023-07-31T20:02:18;2.33;;;1.92;;
40629;SDS011;26329;40.388;-3.710;2023-07-31T20:12:19;9.13;;;1.40;;
40629;SDS011;26329;40.388;-3.710;2023-07-31T20:22:20;4.78;;;3.33;;
40629;SDS011;26329;40.388;-3.710;2023-07-31T20:32:22;3.00;;;2.58;;
40629;SDS011;26329;40.388;-3.710;2023-07-31T20:42:25;5.80;;;2.17;;
40629;SDS011;26329;40.388;-3.710;2023-07-31T20:52:27;3.13;;;1.45;;
40629;SDS011;26329;40.388;-3.710;2023-07-31T21:02:27;7.53;;;5.10;;
40629;SDS011;26329;40.388;-3.710;2023-07-31T21:12:28;3.53;;;1.13;;
40629;SDS011;26329;40.388;-3.710;2023-07-31T21:22:29;1.60;;;1.23;;
40629;SDS011;26329;40.388;-3.710;2023-07-31T21:32:30;4.10;;;1.48;;
40629;SDS011;26329;40.388;-3.710;2023-07-31T21:42:31;2.15;;;1.20;;
40629;SDS011;26329;40.388;-3.710;2023-07-31T21:52:32;4.45;;;1.75;;
40629;SDS011;26329;40.388;-3.710;2023-07-31T22:02:33;5.95;;;1.83;;
40629;SDS011;26329;40.388;-3.710;2023-07-31T22:12:33;4.35;;;2.42;;
40629;SDS011;26329;40.388;-3.710;2023-07-31T22:22:34;4.90;;;1.48;;
40629;SDS011;26329;40.388;-3.710;2023-07-31T22:32:35;7.57;;;1.17;;
40629;SDS011;26329;40.388;-3.710;2023-07-31T22:42:36;4.70;;;2.42;;
40629;SDS011;26329;40.388;-3.710;2023-07-31T22:52:36;6.13;;;1.63;;
40629;SDS011;26329;40.388;-3.710;2023-07-31T23:02:38;2.17;;;2.05;;
40629;SDS011;26329;40.388;-3.710;2023-07-31T23:12:39;5.93;;;3.17;;
40629;SDS011;26329;40.388;-3.710;2023-07-31T23:22:40;3.38;;;2.85;;
40629;SDS011;26329;40.388;-3.710;2023-07-31T23:32:41;3.15;;;2.90;;
40629;SDS011;26329;40.388;-3.710;2023-07-31T23:42:41;6.82;;;3.20;;
40629;SDS011;26329;40.388;-3.710;2023-07-31T23:52:42;3.75;;;3.38;;
